Time;durP1;ratioP1;P1;durP2;ratioP2;P2;SDS_P1;SDS_P2;PMS_P1;PMS_P2;Temp;Humidity;BMP_temperature;BMP_pressure;BME280_temperature;BME280_humidity;BME280_pressure;Samples;Min_cycle;Max_cycle;Signal;HPM_P1;HPM_P2
2021/11/22 00:02:19;;;;;;;7.75;7.40;;;8.40;82.90;;;;;;5051343;28;20044;-77
2021/11/22 00:04:45;;;;;;;11.90;11.35;;;8.40;82.90;;;;;;5051635;28;20021;-78
2021/11/22 00:07:15;;;;;;;7.25;6.90;;;8.40;82.80;;;;;;5051801;28;20033;-78
2021/11/22 00:09:41;;;;;;;6.60;6.30;;;8.40;82.90;;;;;;5052367;28;20048;-78
2021/11/22 00:12:08;;;;;;;8.02;7.65;;;8.40;82.90;;;;;;5051076;28;20207;-78
2021/11/22 00:14:34;;;;;;;6.45;6.15;;;8.40;82.90;;;;;;5053562;28;20057;-78
2021/11/22 00:17:01;;;;;;;8.15;7.75;;;8.40;82.90;;;;;;5030882;28;20056;-78
2021/11/22 00:19:27;;;;;;;11.70;11.10;;;8.40;82.90;;;;;;5084991;28;20025;-78
2021/11/22 00:21:53;;;;;;;8.05;7.65;;;8.40;82.90;;;;;;5085851;28;20037;-78
2021/11/22 00:24:19;;;;;;;6.30;6.00;;;8.40;82.90;;;;;;5051937;28;20390;-78
2021/11/22 00:26:45;;;;;;;11.03;10.53;;;8.30;82.90;;;;;;5053305;28;20039;-78
2021/11/22 00:29:11;;;;;;;9.45;9.05;;;8.30;82.90;;;;;;5051042;28;20024;-78
2021/11/22 00:31:37;;;;;;;7.00;6.70;;;8.30;83.00;;;;;;5051393;28;20041;-78
2021/11/22 00:34:04;;;;;;;7.60;7.20;;;8.30;83.00;;;;;;5052033;28;20033;-78
2021/11/22 00:36:30;;;;;;;7.07;6.72;;;8.30;83.00;;;;;;5051166;28;20448;-78
2021/11/22 00:38:56;;;;;;;6.97;6.68;;;8.30;83.00;;;;;;5050337;28;20048;-78
2021/11/22 00:41:22;;;;;;;7.60;7.30;;;8.30;83.00;;;;;;5052093;28;20037;-78
2021/11/22 00:43:48;;;;;;;9.40;8.90;;;8.30;83.00;;;;;;5051042;28;20025;-78
2021/11/22 00:46:14;;;;;;;9.10;8.60;;;8.30;82.90;;;;;;5050746;28;20401;-78
2021/11/22 00:48:40;;;;;;;6.70;6.40;;;8.30;82.90;;;;;;5052099;28;20018;-78
2021/11/22 00:51:07;;;;;;;7.25;6.70;;;8.30;83.00;;;;;;5050507;28;20044;-78
2021/11/22 00:53:33;;;;;;;7.63;7.13;;;8.30;83.00;;;;;;5051434;28;20033;-78
2021/11/22 00:55:59;;;;;;;6.80;6.50;;;8.30;82.90;;;;;;5085012;28;20032;-77
2021/11/22 00:58:25;;;;;;;6.75;6.45;;;8.30;82.90;;;;;;5041615;28;20489;-77
2021/11/22 01:00:51;;;;;;;7.45;7.15;;;8.30;82.80;;;;;;5082062;28;20033;-78
2021/11/22 01:03:17;;;;;;;6.82;6.53;;;8.30;82.90;;;;;;5051007;28;20402;-78
2021/11/22 01:05:43;;;;;;;7.65;7.30;;;8.20;82.80;;;;;;5052068;28;20044;-78
2021/11/22 01:08:10;;;;;;;6.72;6.43;;;8.20;82.90;;;;;;5051435;28;20032;-77
2021/11/22 01:10:37;;;;;;;7.53;7.13;;;8.20;82.90;;;;;;5052457;28;20413;-78
2021/11/22 01:13:03;;;;;;;6.60;6.30;;;8.20;82.90;;;;;;5063843;28;20402;-77
2021/11/22 01:15:31;;;;;;;6.63;6.32;;;8.20;82.80;;;;;;5051301;28;20044;-78
2021/11/22 01:17:57;;;;;;;6.70;6.40;;;8.20;83.60;;;;;;5050301;28;20416;-77
2021/11/22 01:20:31;;;;;;;7.25;6.95;;;8.20;82.80;;;;;;5051056;28;20029;-77
2021/11/22 01:23:05;;;;;;;10.13;9.63;;;8.20;82.80;;;;;;5049747;28;20048;-77
2021/11/22 01:25:31;;;;;;;6.93;6.63;;;8.20;82.80;;;;;;5037701;28;20024;-77
2021/11/22 01:27:57;;;;;;;7.05;6.75;;;8.20;82.80;;;;;;5051291;28;20517;-77
2021/11/22 01:30:23;;;;;;;8.00;7.60;;;8.10;82.80;;;;;;5032452;28;20029;-78
2021/11/22 01:32:49;;;;;;;7.25;6.93;;;8.10;82.70;;;;;;5050798;28;20492;-78
2021/11/22 01:35:16;;;;;;;7.07;6.77;;;8.10;82.80;;;;;;5066832;28;20477;-78
2021/11/22 01:37:42;;;;;;;11.40;10.90;;;8.10;82.80;;;;;;5063911;28;20036;-78
2021/11/22 01:40:09;;;;;;;7.43;7.13;;;8.10;82.80;;;;;;5067007;28;20474;-77
2021/11/22 01:42:37;;;;;;;6.40;6.10;;;8.00;82.70;;;;;;5050277;28;20044;-77
2021/11/22 01:45:05;;;;;;;6.43;6.13;;;8.00;82.70;;;;;;5051229;28;20492;-77
2021/11/22 01:47:31;;;;;;;7.70;7.37;;;8.00;82.70;;;;;;5049364;28;20036;-77
2021/11/22 01:49:57;;;;;;;7.70;7.37;;;8.00;82.80;;;;;;5030601;28;20040;-77
2021/11/22 01:52:23;;;;;;;8.07;7.68;;;8.00;82.80;;;;;;5083398;28;20025;-78
2021/11/22 01:54:49;;;;;;;6.93;6.63;;;7.90;82.70;;;;;;5051148;28;20032;-77
2021/11/22 01:57:18;;;;;;;6.60;6.30;;;7.90;82.70;;;;;;5051556;28;20033;-77
2021/11/22 01:59:44;;;;;;;5.95;5.65;;;7.90;82.70;;;;;;5048499;28;20033;-78
2021/11/22 02:02:12;;;;;;;6.00;5.70;;;7.90;82.70;;;;;;5082978;28;20040;-78
2021/11/22 02:04:39;;;;;;;6.95;6.65;;;7.80;82.70;;;;;;5050601;28;20020;-77
2021/11/22 02:07:05;;;;;;;6.90;6.60;;;7.80;82.80;;;;;;5050659;28;20378;-77
2021/11/22 02:09:32;;;;;;;5.90;5.60;;;7.80;82.70;;;;;;5032691;28;20032;-78
2021/11/22 02:11:59;;;;;;;6.00;5.70;;;7.70;82.70;;;;;;5048448;28;20041;-77
2021/11/22 02:14:25;;;;;;;6.65;6.35;;;7.70;82.70;;;;;;5083353;28;20037;-78
2021/11/22 02:16:51;;;;;;;6.40;6.10;;;7.70;82.70;;;;;;5049919;28;20025;-78
2021/11/22 02:19:17;;;;;;;5.97;5.67;;;7.70;82.70;;;;;;5083504;28;20048;-77
2021/11/22 02:21:45;;;;;;;6.30;6.00;;;7.60;82.60;;;;;;5049840;28;20048;-77
2021/11/22 02:24:11;;;;;;;6.40;6.10;;;7.60;82.60;;;;;;5076749;28;20038;-77
2021/11/22 02:26:37;;;;;;;5.88;5.57;;;7.60;82.70;;;;;;5041997;28;20049;-77
2021/11/22 02:29:04;;;;;;;6.80;6.43;;;7.60;82.70;;;;;;5049940;28;20029;-77
2021/11/22 02:31:31;;;;;;;6.00;5.70;;;7.60;82.70;;;;;;5050431;28;20029;-78
2021/11/22 02:33:57;;;;;;;6.60;6.30;;;7.50;82.60;;;;;;5082885;28;20394;-77
2021/11/22 02:36:23;;;;;;;6.82;6.53;;;7.50;82.60;;;;;;5048012;28;20492;-78
2021/11/22 02:38:49;;;;;;;5.67;5.40;;;7.50;82.60;;;;;;5050947;28;20032;-77
2021/11/22 02:41:16;;;;;;;7.57;7.27;;;7.50;82.60;;;;;;5032063;28;20045;-77
2021/11/22 02:43:43;;;;;;;8.10;7.70;;;7.50;82.60;;;;;;5049267;28;20413;-77
2021/11/22 02:46:09;;;;;;;6.18;5.88;;;7.50;82.60;;;;;;5081086;28;20045;-77
2021/11/22 02:48:35;;;;;;;6.45;6.15;;;7.40;82.60;;;;;;5050645;28;20021;-77
2021/11/22 02:51:02;;;;;;;6.03;5.73;;;7.40;82.70;;;;;;5050600;28;20033;-77
2021/11/22 02:53:28;;;;;;;6.00;5.70;;;7.40;82.60;;;;;;5048691;28;20029;-77
2021/11/22 02:56:00;;;;;;;6.57;6.27;;;7.40;82.60;;;;;;5048417;28;20025;-77
2021/11/22 02:58:27;;;;;;;6.17;5.87;;;7.40;82.70;;;;;;5049011;28;20497;-77
2021/11/22 03:00:53;;;;;;;6.40;6.10;;;7.30;82.50;;;;;;5047237;28;20243;-77
2021/11/22 03:03:24;;;;;;;5.90;5.60;;;7.30;82.60;;;;;;5045083;28;20418;-77
2021/11/22 03:05:50;;;;;;;5.75;5.45;;;7.30;82.60;;;;;;5040438;28;20033;-77
2021/11/22 03:08:16;;;;;;;6.00;5.70;;;7.30;82.60;;;;;;5031100;28;20040;-77
2021/11/22 03:10:42;;;;;;;6.97;6.47;;;7.20;82.50;;;;;;5048860;28;20029;-77
2021/11/22 03:13:08;;;;;;;6.30;6.00;;;7.20;82.60;;;;;;5045634;28;20044;-77
2021/11/22 03:15:34;;;;;;;14.77;14.07;;;7.20;83.30;;;;;;5050661;28;20072;-77
2021/11/22 03:18:00;;;;;;;6.07;5.77;;;7.20;82.60;;;;;;5048553;28;20068;-77
2021/11/22 03:20:26;;;;;;;5.97;5.68;;;7.20;82.60;;;;;;5050596;28;20036;-77
2021/11/22 03:22:52;;;;;;;6.30;6.00;;;7.20;83.30;;;;;;5052890;28;20032;-77
2021/11/22 03:25:19;;;;;;;6.27;5.97;;;7.20;82.60;;;;;;5046944;28;20020;-77
2021/11/22 03:27:45;;;;;;;6.40;6.10;;;7.10;82.50;;;;;;5035219;28;20056;-77
2021/11/22 03:30:13;;;;;;;7.00;6.70;;;7.10;82.50;;;;;;5077485;28;20025;-77
2021/11/22 03:32:39;;;;;;;7.20;6.90;;;7.10;82.50;;;;;;5068124;28;20045;-77
2021/11/22 03:35:05;;;;;;;6.50;6.20;;;7.10;82.50;;;;;;5037485;28;20033;-77
2021/11/22 03:37:31;;;;;;;7.20;6.80;;;7.10;82.50;;;;;;5080930;28;20044;-77
2021/11/22 03:39:58;;;;;;;7.57;5.93;;;7.10;82.60;;;;;;5052781;28;20040;-77
2021/11/22 03:42:26;;;;;;;6.10;5.80;;;7.10;82.60;;;;;;5052644;28;20047;-77
2021/11/22 03:44:53;;;;;;;6.10;5.80;;;7.10;82.60;;;;;;5053358;28;20032;-77
2021/11/22 03:47:19;;;;;;;6.30;6.00;;;7.10;82.50;;;;;;5053363;28;20422;-77
2021/11/22 03:49:45;;;;;;;6.27;5.87;;;7.10;82.50;;;;;;5051763;28;20029;-77
2021/11/22 03:52:11;;;;;;;6.07;5.77;;;7.10;82.50;;;;;;5086084;28;20037;-77
2021/11/22 03:54:37;;;;;;;6.63;6.33;;;7.00;82.50;;;;;;5054225;28;20421;-77
2021/11/22 03:57:04;;;;;;;6.47;6.17;;;7.00;82.60;;;;;;5050903;28;20055;-77
2021/11/22 03:59:30;;;;;;;6.07;5.77;;;7.00;82.50;;;;;;5050881;28;20036;-77
2021/11/22 04:01:56;;;;;;;6.30;6.00;;;7.00;82.50;;;;;;5050496;28;20048;-77
2021/11/22 04:04:22;;;;;;;5.93;5.63;;;7.00;82.50;;;;;;5052345;28;20017;-77
2021/11/22 04:06:48;;;;;;;6.70;6.40;;;7.00;82.60;;;;;;5053061;28;20040;-77
2021/11/22 04:09:14;;;;;;;7.07;6.77;;;7.00;82.50;;;;;;5068755;28;20037;-77
2021/11/22 04:11:40;;;;;;;5.90;5.60;;;7.00;82.50;;;;;;5049424;28;20064;-77
2021/11/22 04:14:07;;;;;;;6.83;6.53;;;7.00;82.60;;;;;;5085574;28;20033;-77
2021/11/22 04:16:33;;;;;;;6.10;5.80;;;6.90;82.50;;;;;;5051635;28;20033;-77
2021/11/22 04:18:59;;;;;;;6.50;6.20;;;7.00;82.60;;;;;;5068388;28;20060;-77
2021/11/22 04:21:25;;;;;;;6.07;5.77;;;6.90;82.50;;;;;;5052457;28;20032;-77
2021/11/22 04:23:52;;;;;;;6.10;5.80;;;6.90;82.50;;;;;;5085183;28;20025;-77
2021/11/22 04:26:19;;;;;;;6.40;6.10;;;6.90;82.50;;;;;;5052349;28;20025;-77
2021/11/22 04:28:45;;;;;;;5.77;5.47;;;6.90;82.50;;;;;;5052294;28;20493;-77
2021/11/22 04:31:12;;;;;;;7.47;7.17;;;6.90;82.50;;;;;;5050696;28;20092;-78
2021/11/22 04:33:38;;;;;;;6.70;6.27;;;6.90;82.50;;;;;;5035125;28;20045;-77
2021/11/22 04:36:05;;;;;;;6.50;6.20;;;6.90;82.50;;;;;;5084604;28;20029;-76
2021/11/22 04:38:32;;;;;;;5.57;5.37;;;6.90;82.50;;;;;;5050738;28;20378;-77
2021/11/22 04:40:58;;;;;;;6.20;5.90;;;6.90;82.50;;;;;;5034847;28;20041;-77
2021/11/22 04:43:24;;;;;;;5.50;5.30;;;6.90;82.50;;;;;;5049814;28;20037;-77
2021/11/22 04:45:50;;;;;;;6.67;6.37;;;6.80;82.40;;;;;;5052763;28;20504;-77
2021/11/22 04:48:16;;;;;;;5.80;5.50;;;6.80;82.50;;;;;;5049744;28;20036;-77
2021/11/22 04:50:42;;;;;;;6.27;5.97;;;6.80;82.50;;;;;;5084452;28;20401;-77
2021/11/22 04:53:08;;;;;;;5.93;5.63;;;6.80;82.50;;;;;;5051858;28;20081;-77
2021/11/22 04:55:34;;;;;;;6.63;6.33;;;6.80;82.50;;;;;;5049488;28;20049;-77
2021/11/22 04:58:01;;;;;;;6.57;6.27;;;6.80;82.50;;;;;;5052591;28;20048;-77
2021/11/22 05:00:27;;;;;;;6.37;6.07;;;6.80;82.40;;;;;;5050772;28;20060;-77
2021/11/22 05:02:53;;;;;;;6.40;6.10;;;6.80;82.40;;;;;;5051160;28;20060;-76
2021/11/22 05:05:19;;;;;;;11.47;10.97;;;6.80;82.40;;;;;;5050244;28;20365;-77
2021/11/22 05:07:46;;;;;;;6.67;6.37;;;6.80;82.40;;;;;;5051275;28;20081;-77
2021/11/22 05:10:12;;;;;;;6.13;5.83;;;6.80;82.40;;;;;;5050911;28;20044;-77
2021/11/22 05:12:38;;;;;;;8.17;7.77;;;6.80;82.40;;;;;;5033020;28;20362;-77
2021/11/22 05:15:05;;;;;;;6.63;6.33;;;6.70;82.30;;;;;;5050725;28;20048;-76
2021/11/22 05:17:32;;;;;;;6.30;6.00;;;6.70;82.30;;;;;;5049767;28;20028;-77
2021/11/22 05:19:58;;;;;;;8.10;7.70;;;6.70;82.30;;;;;;5083982;28;20043;-77
2021/11/22 05:22:24;;;;;;;6.30;6.00;;;6.70;82.30;;;;;;5050069;28;20045;-77
2021/11/22 05:24:50;;;;;;;6.83;6.53;;;6.70;82.30;;;;;;5066194;28;20350;-77
2021/11/22 05:27:22;;;;;;;6.40;6.10;;;6.80;82.50;;;;;;5051110;28;20028;-77
2021/11/22 05:29:49;;;;;;;6.60;6.30;;;6.70;82.30;;;;;;5050078;28;20040;-77
2021/11/22 05:32:17;;;;;;;6.90;6.60;;;6.70;82.30;;;;;;5033623;28;20029;-77
2021/11/22 05:34:48;;;;;;;7.00;6.70;;;6.70;82.20;;;;;;5046901;28;20374;-77
2021/11/22 05:37:14;;;;;;;6.18;5.88;;;6.70;82.20;;;;;;5032663;28;20037;-77
2021/11/22 05:39:41;;;;;;;6.33;6.03;;;6.70;82.30;;;;;;5051957;28;20033;-77
2021/11/22 05:42:07;;;;;;;6.67;6.27;;;6.70;82.20;;;;;;5049096;28;20037;-77
2021/11/22 05:44:34;;;;;;;6.70;6.40;;;6.70;82.20;;;;;;5060394;28;20511;-77
2021/11/22 05:47:02;;;;;;;6.77;6.47;;;6.70;82.20;;;;;;5081913;28;20389;-77
2021/11/22 05:49:31;;;;;;;6.33;6.03;;;6.60;82.20;;;;;;5050017;28;20029;-77
2021/11/22 05:51:57;;;;;;;6.33;6.03;;;6.60;82.20;;;;;;5066260;28;20024;-77
2021/11/22 05:54:24;;;;;;;6.63;6.33;;;6.60;82.30;;;;;;5030241;28;20176;-77
2021/11/22 05:56:51;;;;;;;6.70;6.40;;;6.60;82.20;;;;;;5081315;28;20052;-77
2021/11/22 05:59:17;;;;;;;7.50;7.10;;;6.60;82.30;;;;;;5050357;28;20021;-77
2021/11/22 06:01:44;;;;;;;6.27;5.97;;;6.60;82.30;;;;;;5049165;28;20029;-77
2021/11/22 06:04:10;;;;;;;9.57;9.17;;;6.50;82.20;;;;;;5081544;28;20486;-77
2021/11/22 06:06:36;;;;;;;7.30;7.00;;;6.50;82.20;;;;;;5052039;28;20040;-77
2021/11/22 06:09:02;;;;;;;7.13;6.83;;;6.50;82.20;;;;;;5048854;28;20402;-77
2021/11/22 06:11:28;;;;;;;6.53;6.23;;;6.50;82.20;;;;;;5051050;28;20187;-76
2021/11/22 06:13:54;;;;;;;7.37;7.07;;;6.50;82.30;;;;;;5049010;28;20091;-77
2021/11/22 06:16:20;;;;;;;6.60;6.30;;;6.50;82.30;;;;;;5049710;28;20033;-78
2021/11/22 06:18:46;;;;;;;6.67;6.37;;;6.50;82.30;;;;;;5047718;28;20489;-77
2021/11/22 06:21:12;;;;;;;7.17;6.87;;;6.40;82.20;;;;;;5049540;28;20037;-78
2021/11/22 06:23:39;;;;;;;6.87;6.57;;;6.40;82.20;;;;;;5047267;28;20744;-78
2021/11/22 06:26:05;;;;;;;6.80;6.50;;;6.40;82.20;;;;;;5065923;28;20021;-77
2021/11/22 06:28:31;;;;;;;8.37;7.87;;;6.40;82.20;;;;;;5049911;28;20024;-77
2021/11/22 06:30:57;;;;;;;6.80;6.50;;;6.40;82.20;;;;;;5049274;28;20033;-77
2021/11/22 06:33:23;;;;;;;7.30;6.90;;;6.40;82.20;;;;;;5051053;28;20029;-77
2021/11/22 06:35:49;;;;;;;7.60;7.03;;;6.40;82.20;;;;;;5050073;28;20029;-77
2021/11/22 06:38:15;;;;;;;8.60;6.90;;;6.40;82.20;;;;;;5050869;28;20143;-78
2021/11/22 06:40:41;;;;;;;7.93;7.53;;;6.40;82.20;;;;;;5050146;28;20029;-78
2021/11/22 06:43:07;;;;;;;7.00;6.70;;;6.40;82.20;;;;;;5049129;28;20045;-79
2021/11/22 06:45:34;;;;;;;6.20;5.90;;;6.40;82.20;;;;;;5050595;28;20048;-78
2021/11/22 06:48:00;;;;;;;5.87;5.57;;;6.30;82.10;;;;;;5049036;28;20033;-78
2021/11/22 06:50:26;;;;;;;6.27;5.97;;;6.30;82.10;;;;;;5066307;28;20044;-78
2021/11/22 06:52:52;;;;;;;11.03;10.53;;;6.30;82.20;;;;;;5050754;28;20473;-78
2021/11/22 06:55:19;;;;;;;6.80;6.50;;;6.30;82.10;;;;;;5083034;28;20045;-78
2021/11/22 06:57:46;;;;;;;6.10;5.80;;;6.30;82.10;;;;;;5051584;28;20378;-78
2021/11/22 07:00:13;;;;;;;6.17;5.87;;;6.30;82.10;;;;;;5048355;28;20043;-77
2021/11/22 07:02:39;;;;;;;6.30;6.00;;;6.30;82.20;;;;;;5049194;28;20412;-78
2021/11/22 07:05:06;;;;;;;6.30;6.00;;;6.30;82.20;;;;;;5049327;28;20409;-78
2021/11/22 07:07:32;;;;;;;6.60;6.30;;;6.30;82.20;;;;;;5049973;28;20374;-78
2021/11/22 07:09:58;;;;;;;5.60;5.37;;;6.30;82.20;;;;;;5050384;28;20029;-79
2021/11/22 07:12:24;;;;;;;10.50;10.00;;;6.30;82.20;;;;;;5049984;28;20033;-79
2021/11/22 07:14:50;;;;;;;5.87;5.57;;;6.30;82.10;;;;;;5052993;28;20405;-79
2021/11/22 07:17:16;;;;;;;6.10;5.80;;;6.30;82.10;;;;;;5053672;28;20026;-78
2021/11/22 07:19:43;;;;;;;7.33;7.03;;;6.20;82.10;;;;;;5053131;28;20040;-78
2021/11/22 07:22:09;;;;;;;6.20;5.90;;;6.20;82.10;;;;;;5053274;28;20423;-78
2021/11/22 07:24:38;;;;;;;6.10;5.80;;;6.30;82.10;;;;;;5053370;28;20028;-76
2021/11/22 07:27:05;;;;;;;6.07;5.77;;;6.30;82.10;;;;;;5054315;28;20029;-76
2021/11/22 07:29:31;;;;;;;9.60;9.20;;;6.30;82.10;;;;;;5053999;28;20390;-76
2021/11/22 07:31:58;;;;;;;6.07;5.77;;;6.30;82.10;;;;;;5052901;28;20036;-78
2021/11/22 07:34:24;;;;;;;6.23;5.93;;;6.30;82.00;;;;;;5052989;28;20036;-77
2021/11/22 07:36:50;;;;;;;6.00;5.70;;;6.30;82.00;;;;;;5052073;28;20492;-77
2021/11/22 07:39:16;;;;;;;6.33;6.03;;;6.30;82.00;;;;;;5051680;28;20055;-78
2021/11/22 07:41:42;;;;;;;6.10;5.80;;;6.30;82.00;;;;;;5050173;28;20029;-78
2021/11/22 07:44:09;;;;;;;6.73;6.00;;;6.30;81.90;;;;;;5051255;28;20059;-77
2021/11/22 07:46:35;;;;;;;6.27;5.97;;;6.30;81.90;;;;;;5050711;28;20037;-80
2021/11/22 07:49:01;;;;;;;6.03;5.73;;;6.30;82.70;;;;;;5050795;28;20085;-81
2021/11/22 07:51:27;;;;;;;6.23;5.93;;;6.30;81.90;;;;;;5052938;28;20025;-81
2021/11/22 07:53:53;;;;;;;6.67;6.37;;;6.30;81.90;;;;;;5052270;28;20589;-81
2021/11/22 07:56:20;;;;;;;6.20;5.90;;;6.30;81.80;;;;;;5050065;28;20028;-81
2021/11/22 07:58:46;;;;;;;6.03;5.73;;;6.30;81.80;;;;;;5052268;28;20100;-81
2021/11/22 08:01:12;;;;;;;6.93;6.57;;;6.40;81.90;;;;;;5049784;28;20466;-82
2021/11/22 08:03:38;;;;;;;10.43;9.93;;;6.40;81.80;;;;;;5034805;28;20048;-82
2021/11/22 08:06:04;;;;;;;14.37;6.10;;;6.30;81.80;;;;;;5051929;28;20028;-82
2021/11/22 08:08:32;;;;;;;7.07;6.77;;;6.40;81.80;;;;;;5052765;28;20037;-82
2021/11/22 08:11:07;;;;;;;6.20;5.90;;;6.40;81.80;;;;;;5052889;28;20031;-78
2021/11/22 08:13:34;;;;;;;6.53;6.23;;;6.40;81.70;;;;;;5051935;28;20399;-81
2021/11/22 08:16:02;;;;;;;18.13;17.27;;;6.40;81.60;;;;;;5066846;28;20041;-81
2021/11/22 08:18:28;;;;;;;6.50;6.20;;;6.50;81.70;;;;;;5050173;28;20033;-80
2021/11/22 08:20:55;;;;;;;6.83;6.53;;;6.50;81.60;;;;;;5051301;28;20386;-81
2021/11/22 08:23:21;;;;;;;6.67;6.37;;;6.60;81.60;;;;;;5051307;28;20041;-81
2021/11/22 08:25:47;;;;;;;7.60;7.20;;;6.60;81.50;;;;;;5051581;28;20035;-80
2021/11/22 08:28:13;;;;;;;16.17;15.43;;;6.70;81.50;;;;;;5050000;28;20036;-82
2021/11/22 08:30:39;;;;;;;6.47;6.17;;;6.70;81.40;;;;;;5050319;28;20052;-79
2021/11/22 08:33:05;;;;;;;17.33;16.50;;;6.70;81.40;;;;;;5052580;28;20237;-82
2021/11/22 08:35:31;;;;;;;6.97;6.67;;;6.80;81.30;;;;;;5051927;28;20032;-80
2021/11/22 08:38:01;;;;;;;28.27;26.93;;;6.80;81.30;;;;;;5033882;28;20041;-80
2021/11/22 08:40:27;;;;;;;7.80;7.43;;;6.80;81.20;;;;;;5051148;28;20035;-80
2021/11/22 08:42:54;;;;;;;7.30;7.00;;;6.80;81.20;;;;;;5049742;28;20055;-82
2021/11/22 08:45:22;;;;;;;8.67;8.27;;;6.80;81.10;;;;;;5051851;28;20086;-77
2021/11/22 08:47:48;;;;;;;7.47;7.17;;;6.90;81.20;;;;;;5027864;28;20061;-84
2021/11/22 08:50:14;;;;;;;37.20;35.10;;;7.00;81.80;;;;;;5050611;28;20509;-82
2021/11/22 08:52:41;;;;;;;8.38;7.97;;;7.10;81.30;;;;;;5016673;28;20056;-82
2021/11/22 08:55:08;;;;;;;8.00;7.60;;;7.20;81.20;;;;;;5050075;28;20064;-84
2021/11/22 08:57:34;;;;;;;38.45;36.50;;;7.30;81.20;;;;;;5048332;28;20048;-80
2021/11/22 09:00:02;;;;;;;17.17;16.37;;;7.40;81.10;;;;;;5050218;28;20041;-80
2021/11/22 09:02:28;;;;;;;12.43;11.83;;;7.50;81.00;;;;;;5048918;28;20045;-80
2021/11/22 09:04:54;;;;;;;8.70;8.30;;;7.60;81.00;;;;;;5051900;28;20029;-80
2021/11/22 09:07:20;;;;;;;11.00;10.50;;;7.70;81.00;;;;;;5051121;28;20033;-81
2021/11/22 09:09:47;;;;;;;8.18;7.78;;;7.70;80.90;;;;;;5050015;28;20048;-81
2021/11/22 09:12:13;;;;;;;8.13;7.73;;;7.80;81.00;;;;;;5050092;28;20037;-81
2021/11/22 09:14:39;;;;;;;8.07;7.68;;;7.90;81.10;;;;;;5049951;28;20052;-80
2021/11/22 09:17:05;;;;;;;9.05;8.65;;;8.00;81.00;;;;;;5050145;28;20044;-82
2021/11/22 09:19:31;;;;;;;14.07;13.45;;;8.10;81.00;;;;;;5049447;28;20037;-82
2021/11/22 09:21:57;;;;;;;9.13;8.73;;;8.30;81.00;;;;;;5048517;28;20450;-84
2021/11/22 09:24:23;;;;;;;8.80;8.40;;;8.40;80.90;;;;;;5047838;28;20041;-83
2021/11/22 09:26:50;;;;;;;35.58;33.83;;;8.50;80.70;;;;;;5048843;28;20037;-82
2021/11/22 09:29:16;;;;;;;18.65;17.77;;;8.50;80.60;;;;;;5032246;28;20053;-81
2021/11/22 09:31:42;;;;;;;10.43;9.93;;;8.60;80.40;;;;;;5048961;28;20056;-81
2021/11/22 09:34:08;;;;;;;14.23;13.52;;;8.70;80.20;;;;;;5047979;28;20033;-81
2021/11/22 09:36:34;;;;;;;10.90;10.40;;;8.80;79.70;;;;;;5047607;28;20041;-79
2021/11/22 09:39:00;;;;;;;8.73;8.32;;;8.80;79.40;;;;;;5046919;28;20051;-86
2021/11/22 09:41:28;;;;;;;8.20;7.80;;;8.80;79.40;;;;;;5029839;28;20482;-83
2021/11/22 09:43:55;;;;;;;10.48;10.00;;;8.80;79.10;;;;;;5048655;28;20393;-84
2021/11/22 09:46:21;;;;;;;8.15;7.75;;;8.90;79.20;;;;;;5080789;28;20478;-80
2021/11/22 09:48:47;;;;;;;11.45;10.95;;;8.90;78.90;;;;;;5048676;28;20033;-80
2021/11/22 09:51:14;;;;;;;10.35;9.85;;;9.10;78.40;;;;;;5047524;28;20036;-79
2021/11/22 09:53:40;;;;;;;18.20;17.35;;;9.20;77.70;;;;;;5047353;28;20595;-79
2021/11/22 09:56:07;;;;;;;10.63;10.00;;;9.20;77.30;;;;;;5046089;28;20029;-79
2021/11/22 09:58:34;;;;;;;12.98;12.38;;;9.40;77.30;;;;;;5077566;28;20052;-82
2021/11/22 10:01:08;;;;;;;9.55;9.05;;;9.50;76.70;;;;;;5047612;28;20056;-83
2021/11/22 10:03:34;;;;;;;9.30;8.90;;;9.50;76.60;;;;;;5048422;28;20049;-79
2021/11/22 10:06:01;;;;;;;13.30;12.70;;;9.50;76.60;;;;;;5048509;28;20037;-79
2021/11/22 10:08:28;;;;;;;9.40;9.00;;;9.50;76.60;;;;;;5046802;28;20036;-79
2021/11/22 10:10:58;;;;;;;18.48;17.58;;;9.50;76.60;;;;;;5046849;28;20386;-79
2021/11/22 10:13:25;;;;;;;12.55;11.95;;;9.40;76.10;;;;;;5047276;28;20031;-79
2021/11/22 10:15:52;;;;;;;46.45;44.10;;;9.40;75.90;;;;;;5063568;28;20052;-79
2021/11/22 10:18:27;;;;;;;12.10;11.52;;;9.40;76.00;;;;;;5047329;28;20036;-79
2021/11/22 10:20:53;;;;;;;15.27;14.57;;;9.30;75.90;;;;;;5046598;28;20037;-79
2021/11/22 10:23:21;;;;;;;25.10;23.88;;;9.40;75.90;;;;;;5046888;28;20033;-79
2021/11/22 10:25:48;;;;;;;21.65;20.65;;;9.40;75.70;;;;;;5047059;28;20402;-79
2021/11/22 10:28:16;;;;;;;12.75;12.15;;;9.40;75.40;;;;;;5047557;28;20033;-79
2021/11/22 10:30:45;;;;;;;13.57;12.95;;;9.40;75.30;;;;;;5046731;28;20029;-80
2021/11/22 10:33:12;;;;;;;45.33;42.90;;;9.50;75.40;;;;;;5046390;28;20036;-80
2021/11/22 10:35:38;;;;;;;23.70;22.50;;;9.50;75.20;;;;;;5045479;28;20033;-80
2021/11/22 10:38:10;;;;;;;15.50;14.80;;;9.50;74.80;;;;;;5046367;28;20025;-80
2021/11/22 10:40:37;;;;;;;11.48;10.88;;;9.50;74.60;;;;;;5045428;28;20040;-80
2021/11/22 10:43:03;;;;;;;63.85;60.45;;;9.50;74.40;;;;;;5029816;28;20063;-81
2021/11/22 10:45:35;;;;;;;47.03;44.70;;;9.50;74.50;;;;;;5045537;28;20512;-83
2021/11/22 10:48:18;;;;;;;16.13;15.32;;;9.40;74.20;;;;;;5048197;28;20028;-82
2021/11/22 10:50:50;;;;;;;13.50;12.90;;;9.40;74.40;;;;;;5051009;28;20033;-80
2021/11/22 10:53:25;;;;;;;26.20;24.95;;;9.40;74.50;;;;;;5051992;28;20116;-80
2021/11/22 10:55:51;;;;;;;38.03;36.15;;;9.40;74.40;;;;;;5049344;28;20025;-80
2021/11/22 10:58:32;;;;;;;63.13;59.90;;;9.40;74.50;;;;;;5049275;28;20516;-80
2021/11/22 11:00:58;;;;;;;11.32;10.82;;;9.30;74.50;;;;;;5047500;28;20050;-79
2021/11/22 11:03:27;;;;;;;11.85;11.32;;;9.40;74.50;;;;;;5053010;28;20037;-83
2021/11/22 11:05:57;;;;;;;11.98;11.48;;;9.30;74.30;;;;;;5052909;28;20028;-88
2021/11/22 11:08:28;;;;;;;12.13;11.57;;;9.30;74.20;;;;;;5053054;28;20473;-85
2021/11/22 11:11:08;;;;;;;11.37;10.87;;;9.30;73.90;;;;;;5053240;28;20032;-85
2021/11/22 11:13:47;;;;;;;55.55;52.58;;;9.30;73.70;;;;;;5044328;28;20040;-83
2021/11/22 11:16:14;;;;;;;25.88;24.58;;;9.20;73.50;;;;;;5052594;28;20037;-84
2021/11/22 11:18:40;;;;;;;13.77;13.18;;;9.30;73.50;;;;;;5053967;28;20036;-83
2021/11/22 11:21:06;;;;;;;11.35;10.85;;;9.30;73.50;;;;;;5053825;28;20029;-84
2021/11/22 11:23:32;;;;;;;15.75;15.05;;;9.20;73.40;;;;;;5052227;28;20104;-83
2021/11/22 11:25:59;;;;;;;65.68;62.22;;;9.20;73.40;;;;;;5053877;28;20363;-85
2021/11/22 11:28:26;;;;;;;12.13;11.57;;;9.20;73.30;;;;;;5035495;28;20041;-84
2021/11/22 11:30:52;;;;;;;15.63;14.90;;;9.20;72.80;;;;;;5055804;28;20039;-83
2021/11/22 11:33:18;;;;;;;12.98;12.38;;;9.20;72.80;;;;;;5050934;28;20029;-86
2021/11/22 11:35:46;;;;;;;12.20;11.60;;;9.20;72.90;;;;;;5052676;28;20040;-82
2021/11/22 11:38:18;;;;;;;11.30;10.80;;;9.30;73.10;;;;;;5053917;28;20025;-83
2021/11/22 11:41:19;;;;;;;65.32;61.67;;;9.40;73.10;;;;;;5052564;28;21906;-82
2021/11/22 11:44:21;;;;;;;39.85;37.80;;;9.40;73.00;;;;;;5053580;28;20506;-82
2021/11/22 11:46:56;;;;;;;15.13;14.43;;;9.40;72.70;;;;;;5039375;28;20060;-82
2021/11/22 11:49:30;;;;;;;16.60;15.82;;;9.30;72.50;;;;;;5045947;28;20382;-82
2021/11/22 11:51:56;;;;;;;11.00;10.50;;;9.30;72.40;;;;;;5051504;28;20028;-82
2021/11/22 11:54:24;;;;;;;12.63;11.85;;;9.30;72.60;;;;;;5034811;28;20044;-81
2021/11/22 11:57:04;;;;;;;12.30;11.75;;;9.30;72.70;;;;;;5053761;28;20033;-81
2021/11/22 11:59:38;;;;;;;12.50;11.90;;;9.40;72.60;;;;;;5051046;28;20048;-81
2021/11/22 12:02:17;;;;;;;14.05;13.35;;;9.40;72.30;;;;;;5049788;28;20049;-81
2021/11/22 12:04:47;;;;;;;15.50;14.80;;;9.40;72.30;;;;;;5052476;28;20052;-79
2021/11/22 12:07:37;;;;;;;21.27;20.27;;;9.40;72.40;;;;;;5051532;28;20405;-78
2021/11/22 12:10:24;;;;;;;11.20;10.65;;;9.40;72.00;;;;;;5051005;28;20029;-79
2021/11/22 12:12:57;;;;;;;12.75;12.15;;;9.40;71.90;;;;;;5048667;28;20036;-79
2021/11/22 12:15:27;;;;;;;15.95;15.23;;;9.40;72.00;;;;;;5081505;28;20051;-78
2021/11/22 12:17:58;;;;;;;21.10;20.10;;;9.40;71.80;;;;;;5030766;28;20042;-78
2021/11/22 12:20:24;;;;;;;23.15;22.05;;;9.40;71.60;;;;;;5049192;28;20032;-89
2021/11/22 12:22:52;;;;;;;22.70;21.63;;;9.40;71.40;;;;;;5052366;28;20071;-85
2021/11/22 12:25:37;;;;;;;17.90;17.08;;;9.40;71.40;;;;;;5050344;28;20045;-78
2021/11/22 12:28:11;;;;;;;11.45;10.88;;;9.40;71.30;;;;;;5049702;28;20492;-78
2021/11/22 12:30:41;;;;;;;10.90;10.40;;;9.30;71.30;;;;;;5051087;28;20041;-78
2021/11/22 12:33:20;;;;;;;21.08;20.08;;;9.30;71.30;;;;;;5050643;28;20033;-79
2021/11/22 12:35:56;;;;;;;22.60;21.50;;;9.30;71.30;;;;;;5050408;28;20044;-79
2021/11/22 12:38:32;;;;;;;21.33;20.30;;;9.20;71.00;;;;;;5046678;28;20025;-79
2021/11/22 12:41:03;;;;;;;81.07;76.88;;;9.20;71.10;;;;;;5050399;28;20033;-78
2021/11/22 12:43:44;;;;;;;78.88;74.72;;;9.20;71.10;;;;;;5050362;28;20036;-77
2021/11/22 12:46:15;;;;;;;79.57;75.05;;;9.20;71.10;;;;;;5048510;28;20037;-78
2021/11/22 12:48:43;;;;;;;13.13;12.52;;;9.10;70.90;;;;;;5050318;28;20037;-78
2021/11/22 12:51:12;;;;;;;21.88;20.02;;;9.10;70.90;;;;;;5050537;28;20029;-78
2021/11/22 12:53:41;;;;;;;11.30;10.80;;;9.10;70.90;;;;;;5051287;28;20421;-77